Weather at Cincinnati Municipal Airport Lunken Field

Public forecast

Using degrees Fahrenheit for public forecast. Weather courtesy of forecast.io.

Current aviation weather report (METAR) for Cincinnati Municipal Airport Lunken Field

Retrieved 2020/10/01 11:53 UTC (9 minutes ago):

KLUK 011153Z 00000KT 10SM FEW090 06/06 A3000 RMK AO2 SLP159 T00610056 10094 20050 52005

Aviation forecast (TAF) for Cincinnati Municipal Airport Lunken Field

Retrieved 2020/10/01 12:28 UTC (0 seconds ago):

TAF KLUK 011126Z 0112/0212 23006KT P6SM SKC FM011600 26010KT P6SM SCT060 FM011800 28012G20KT P6SM VCSH BKN070 FM012300 29008KT P6SM SCT090 FM020800 30003KT 3SM BR SCT090